Terminal Aerodrome Forecast
Issued by NWS

Home | Current Version | Previous Version | Text Only | Print | Product List | Glossary On
Versions: 1 2 3 4 5 6 7 8 9 10 11 12 13 14 15
000
FTUS41 KALY 240147 AAA
TAFPSF
TAF AMD
KPSF 240147Z 2402/2424 18006KT P6SM SCT250
     FM241500 20006KT P6SM BKN250
     FM241900 19010G15KT P6SM SCT120 BKN200=

USA.gov is the U.S. government's official web portal to all federal, state and local government web resources and services.